Humber Bridge — 3EHZ5 — position and weather

sailwx.info

Track history (hours):
 
Tides and Currents Weather Stations Pressure Air Temp Water Temp Dewpoint Dewpoint Depression Visibility Wind Speed Wind Dir Waves Ship Positions

Humber Bridge

Last reported at 2018-Jul-05 12:17 UTC. Time now 2018-Jul-16 10:43 UTC.
Position N 31°06' E 122°19'.
Warning: this ship's position is 10 days out of date.

Length 336 m; draft 9.5 m.

Type: Ship (hazmat cat A). MMSI: 372038000.

Date/timePositionNaut miles runAvg speedWind from/ knotsBaromVisibWave heightAir tempDewpointWater temp
2018-Jul-05 12:17N 31°06' E 122°19'1414.7
2018-Jul-05 11:20N 31°14' E 122°05'  
2018-Jun-29 00:32N 34°51' E 139°38'822.2
2018-Jun-29 00:11N 34°58' E 139°41'421.7
2018-Jun-28 23:59N 35°03' E 139°42'816.7
2018-Jun-28 23:30N 35°10' E 139°45'4 8.9
2018-Jun-28 23:00N 35°15' E 139°46'612.6
2018-Jun-28 22:30N 35°20' E 139°43'611.8
2018-Jun-28 22:00N 35°26' E 139°45'713.2
2018-Jun-28 21:30N 35°30' E 139°51'611.6
2018-Jun-28 21:00N 35°35' E 139°47'2 3.9
2018-Jun-28 20:30N 35°37' E 139°46'0 0.0
2018-Jun-28 18:37N 35°37' E 139°46'0 0.0
2018-Jun-28 18:28N 35°37' E 139°46'0 0.0
2018-Jun-28 17:55N 35°37' E 139°46'0 0.0
2018-Jun-28 17:25N 35°37' E 139°46'0 0.0
2018-Jun-28 16:55N 35°37' E 139°46'0 0.0
2018-Jun-28 16:28N 35°37' E 139°46'0 0.0
2018-Jun-28 15:55N 35°37' E 139°46'0 0.0
2018-Jun-28 15:13N 35°37' E 139°46'0 0.0
2018-Jun-28 14:37N 35°37' E 139°46'0 0.0
2018-Jun-28 14:25N 35°37' E 139°46'0 0.0
2018-Jun-28 13:55N 35°37' E 139°46'0 0.0
2018-Jun-28 13:07N 35°37' E 139°46'0 0.0
2018-Jun-28 12:31N 35°37' E 139°46'0 0.0
2018-Jun-28 12:28N 35°37' E 139°46'0 0.0
2018-Jun-28 11:49N 35°37' E 139°46'0 0.0
2018-Jun-28 11:25N 35°37' E 139°46'0 0.0
2018-Jun-28 10:46N 35°37' E 139°46'0 0.0
2018-Jun-28 10:22N 35°37' E 139°46'0 0.0
2018-Jun-28 10:00N 35°37' E 139°46'1 1.5
2018-Jun-28 09:30N 35°36' E 139°47'4 8.5
2018-Jun-28 09:00N 35°33' E 139°50'3 6.8
2018-Jun-28 08:30N 35°30' E 139°52'713.3
2018-Jun-28 08:00N 35°25' E 139°47'612.7
2018-Jun-28 07:30N 35°19' E 139°44'612.0
2018-Jun-28 07:00N 35°14' E 139°47'510.1
2018-Jun-28 06:30N 35°09' E 139°46'4 7.9
2018-Jun-28 06:00N 35°05' E 139°44'510.5
2018-Jun-28 05:30N 35°00' E 139°42'4 8.2
2018-Jun-28 05:00N 34°56' E 139°43'  
Track history (hours):
 
Tides and Currents Weather Stations Pressure Air Temp Water Temp Dewpoint Dewpoint Depression Visibility Wind Speed Wind Dir Waves Ship Positions

Humber Bridge

Last reported at 2018-Jul-05 12:17 UTC. Time now 2018-Jul-16 10:43 UTC.
Position N 31°06' E 122°19'.
Warning: this ship's position is 10 days out of date.

Length 336 m; draft 9.5 m.

Type: Ship (hazmat cat A). MMSI: 372038000.

Date/timePositionNaut miles runAvg speedWind from/ knotsBaromVisibWave heightAir tempDewpointWater temp
2018-Jul-05 12:17N 31°06' E 122°19'1414.7
2018-Jul-05 11:20N 31°14' E 122°05'  
2018-Jun-29 00:32N 34°51' E 139°38'822.2
2018-Jun-29 00:11N 34°58' E 139°41'421.7
2018-Jun-28 23:59N 35°03' E 139°42'816.7
2018-Jun-28 23:30N 35°10' E 139°45'4 8.9
2018-Jun-28 23:00N 35°15' E 139°46'612.6
2018-Jun-28 22:30N 35°20' E 139°43'611.8
2018-Jun-28 22:00N 35°26' E 139°45'713.2
2018-Jun-28 21:30N 35°30' E 139°51'611.6
2018-Jun-28 21:00N 35°35' E 139°47'2 3.9
2018-Jun-28 20:30N 35°37' E 139°46'0 0.0
2018-Jun-28 18:37N 35°37' E 139°46'0 0.0
2018-Jun-28 18:28N 35°37' E 139°46'0 0.0
2018-Jun-28 17:55N 35°37' E 139°46'0 0.0
2018-Jun-28 17:25N 35°37' E 139°46'0 0.0
2018-Jun-28 16:55N 35°37' E 139°46'0 0.0
2018-Jun-28 16:28N 35°37' E 139°46'0 0.0
2018-Jun-28 15:55N 35°37' E 139°46'0 0.0
2018-Jun-28 15:13N 35°37' E 139°46'0 0.0
2018-Jun-28 14:37N 35°37' E 139°46'0 0.0
2018-Jun-28 14:25N 35°37' E 139°46'0 0.0
2018-Jun-28 13:55N 35°37' E 139°46'0 0.0
2018-Jun-28 13:07N 35°37' E 139°46'0 0.0
2018-Jun-28 12:31N 35°37' E 139°46'0 0.0
2018-Jun-28 12:28N 35°37' E 139°46'0 0.0
2018-Jun-28 11:49N 35°37' E 139°46'0 0.0
2018-Jun-28 11:25N 35°37' E 139°46'0 0.0
2018-Jun-28 10:46N 35°37' E 139°46'0 0.0
2018-Jun-28 10:22N 35°37' E 139°46'0 0.0
2018-Jun-28 10:00N 35°37' E 139°46'1 1.5
2018-Jun-28 09:30N 35°36' E 139°47'4 8.5
2018-Jun-28 09:00N 35°33' E 139°50'3 6.8
2018-Jun-28 08:30N 35°30' E 139°52'713.3
2018-Jun-28 08:00N 35°25' E 139°47'612.7
2018-Jun-28 07:30N 35°19' E 139°44'612.0
2018-Jun-28 07:00N 35°14' E 139°47'510.1
2018-Jun-28 06:30N 35°09' E 139°46'4 7.9
2018-Jun-28 06:00N 35°05' E 139°44'510.5
2018-Jun-28 05:30N 35°00' E 139°42'4 8.2
2018-Jun-28 05:00N 34°56' E 139°43'  

Dump ship's entire track history